Time;durP1;ratioP1;P1;durP2;ratioP2;P2;SDS_P1;SDS_P2;PMS_P1;PMS_P2;Temp;Humidity;BMP_temperature;BMP_pressure;BME280_temperature;BME280_humidity;BME280_pressure;Samples;Min_cycle;Max_cycle;Signal;HPM_P1;HPM_P2
2021/11/08 00:01:04;;;;;;;4.57;1.50;;;7.30;93.60;;;;;;2083234;28;20101;-88
2021/11/08 00:02:07;;;;;;;5.93;1.83;;;7.20;93.60;;;;;;2084418;28;20006;-87
2021/11/08 00:03:13;;;;;;;5.80;1.60;;;7.20;93.60;;;;;;2090114;28;20057;-87
2021/11/08 00:04:13;;;;;;;7.68;1.50;;;7.20;93.60;;;;;;2086928;28;20037;-86
2021/11/08 00:05:14;;;;;;;4.32;1.40;;;7.20;93.90;;;;;;2082575;28;20124;-89
2021/11/08 00:06:16;;;;;;;4.72;1.58;;;7.20;93.60;;;;;;2075654;28;20400;-89
2021/11/08 00:07:17;;;;;;;6.78;1.67;;;7.20;93.60;;;;;;2071529;28;20030;-90
2021/11/08 00:08:18;;;;;;;5.32;1.40;;;7.20;93.70;;;;;;2059680;28;20501;-90
2021/11/08 00:09:19;;;;;;;5.68;1.58;;;7.20;93.70;;;;;;2081041;28;20048;-89
2021/11/08 00:10:27;;;;;;;4.97;1.58;;;7.20;93.70;;;;;;2077245;28;20038;-90
2021/11/08 00:11:28;;;;;;;6.57;1.48;;;7.20;93.70;;;;;;2068605;28;20049;-90
2021/11/08 00:12:28;;;;;;;5.43;1.60;;;7.20;93.70;;;;;;2064840;28;20035;-90
2021/11/08 00:13:29;;;;;;;5.20;1.60;;;7.20;93.70;;;;;;2063693;28;20034;-90
2021/11/08 00:14:30;;;;;;;4.68;1.40;;;7.10;93.70;;;;;;2073441;28;20026;-91
2021/11/08 00:17:12;;;;;;;;;;;7.10;93.70;;;;;;2074285;28;20038;-90
2021/11/08 00:18:29;;;;;;;;;;;7.10;93.70;;;;;;2075247;28;19996;-90
2021/11/08 00:20:48;;;;;;;5.70;1.60;;;7.10;93.60;;;;;;2080292;28;20042;-90
2021/11/08 00:21:49;;;;;;;3.47;1.20;;;7.10;93.60;;;;;;2081759;28;20500;-90
2021/11/08 00:22:50;;;;;;;4.32;1.42;;;7.00;93.60;;;;;;2079545;28;20092;-89
2021/11/08 00:23:51;;;;;;;4.38;1.35;;;7.00;93.60;;;;;;2061785;28;20027;-89
2021/11/08 00:24:52;;;;;;;5.53;1.40;;;7.00;93.60;;;;;;2056693;28;20042;-89
2021/11/08 00:25:53;;;;;;;4.35;1.45;;;7.00;93.60;;;;;;2064567;28;20065;-89
2021/11/08 00:26:54;;;;;;;3.03;1.05;;;6.90;93.60;;;;;;2056778;28;20509;-89
2021/11/08 00:27:55;;;;;;;4.03;1.40;;;6.90;93.70;;;;;;2065041;28;20038;-88
2021/11/08 00:28:56;;;;;;;4.95;1.45;;;6.90;93.70;;;;;;2074236;28;20037;-89
2021/11/08 00:29:57;;;;;;;4.57;1.20;;;6.90;93.70;;;;;;2064629;28;20038;-89
2021/11/08 00:30:58;;;;;;;5.25;1.80;;;6.90;93.70;;;;;;2065125;28;20061;-88
2021/11/08 00:31:59;;;;;;;6.20;1.52;;;6.90;94.00;;;;;;2073048;28;20034;-89
2021/11/08 00:32:59;;;;;;;6.40;1.55;;;6.90;93.80;;;;;;2065760;28;20046;-89
2021/11/08 00:34:00;;;;;;;5.55;1.30;;;6.90;93.80;;;;;;2071959;28;20403;-89
2021/11/08 00:35:01;;;;;;;6.80;1.70;;;6.80;93.80;;;;;;2067053;28;20034;-89
2021/11/08 00:36:02;;;;;;;5.18;1.60;;;6.80;93.80;;;;;;2076831;28;20033;-89
2021/11/08 00:37:03;;;;;;;6.18;2.00;;;6.80;93.80;;;;;;2081133;28;20049;-89
2021/11/08 00:38:04;;;;;;;4.00;1.40;;;6.80;93.80;;;;;;2071640;28;20033;-88
2021/11/08 00:39:06;;;;;;;5.70;1.67;;;6.80;93.80;;;;;;2072274;28;20153;-89
2021/11/08 00:40:08;;;;;;;6.97;1.80;;;6.80;93.80;;;;;;2071464;28;20373;-90
2021/11/08 00:41:08;;;;;;;6.07;1.58;;;6.80;93.80;;;;;;2073544;28;20072;-89
2021/11/08 00:42:09;;;;;;;5.10;1.65;;;6.90;93.80;;;;;;2073484;28;20045;-89
2021/11/08 00:43:12;;;;;;;5.40;1.50;;;6.80;93.80;;;;;;2071350;28;20473;-89
2021/11/08 00:44:13;;;;;;;5.88;1.60;;;6.80;93.80;;;;;;2065180;28;20026;-88
2021/11/08 00:45:14;;;;;;;3.95;1.33;;;6.80;93.80;;;;;;2073088;28;20038;-89
2021/11/08 00:46:14;;;;;;;6.45;1.98;;;6.80;93.80;;;;;;2078092;28;20691;-90
2021/11/08 00:47:15;;;;;;;5.63;1.92;;;6.80;93.80;;;;;;2064941;28;20386;-88
2021/11/08 00:48:19;;;;;;;5.80;1.60;;;6.80;93.80;;;;;;2067706;28;20033;-90
2021/11/08 00:49:20;;;;;;;5.63;1.40;;;6.80;93.80;;;;;;2065548;28;20125;-90
2021/11/08 00:50:21;;;;;;;6.70;1.70;;;6.80;93.80;;;;;;2065952;28;20038;-90
2021/11/08 00:51:23;;;;;;;5.97;1.50;;;6.80;93.80;;;;;;2065956;28;20041;-90
2021/11/08 00:52:24;;;;;;;5.25;1.60;;;6.80;93.80;;;;;;2074780;28;20046;-90
2021/11/08 00:53:24;;;;;;;6.60;1.80;;;6.80;93.80;;;;;;2088533;28;20068;-89
2021/11/08 00:54:26;;;;;;;4.65;1.70;;;6.90;93.80;;;;;;2084256;28;20061;-89
2021/11/08 00:55:29;;;;;;;4.55;1.40;;;6.80;93.80;;;;;;2083724;28;20050;-90
2021/11/08 00:56:30;;;;;;;5.80;1.52;;;6.90;93.80;;;;;;2090179;28;20089;-90
2021/11/08 00:57:35;;;;;;;4.07;1.50;;;6.80;93.80;;;;;;2083715;28;20037;-88
2021/11/08 00:58:38;;;;;;;4.55;1.55;;;6.80;93.80;;;;;;2072936;28;20034;-90
2021/11/08 00:59:39;;;;;;;5.00;2.10;;;6.80;93.80;;;;;;2073301;28;20417;-89
2021/11/08 01:00:40;;;;;;;6.95;1.58;;;6.80;93.80;;;;;;2064881;28;20080;-87
2021/11/08 01:01:45;;;;;;;4.40;1.75;;;6.80;93.80;;;;;;2057404;28;20035;-89
2021/11/08 01:02:46;;;;;;;6.13;2.05;;;6.80;93.80;;;;;;2065172;28;20082;-89
2021/11/08 01:03:48;;;;;;;4.65;1.70;;;6.80;93.80;;;;;;2064797;28;20125;-91
2021/11/08 01:04:48;;;;;;;5.68;1.75;;;6.80;93.80;;;;;;2071464;28;20083;-89
2021/11/08 01:05:49;;;;;;;5.65;1.55;;;6.80;94.10;;;;;;2065343;28;20603;-89
2021/11/08 01:06:53;;;;;;;5.57;1.83;;;6.70;93.80;;;;;;2066847;28;20109;-88
2021/11/08 01:07:54;;;;;;;3.88;1.33;;;6.70;93.80;;;;;;2078833;28;20037;-90
2021/11/08 01:08:55;;;;;;;4.47;1.65;;;6.70;93.80;;;;;;2067436;28;20058;-89
2021/11/08 01:09:56;;;;;;;6.57;1.30;;;6.70;93.80;;;;;;2065766;28;20069;-89
2021/11/08 01:10:58;;;;;;;3.47;1.38;;;6.70;93.80;;;;;;2062301;28;20486;-90
2021/11/08 01:11:58;;;;;;;4.60;1.80;;;6.60;93.80;;;;;;2072871;28;20080;-89
2021/11/08 01:12:59;;;;;;;8.02;1.80;;;6.60;93.90;;;;;;2081296;28;20570;-90
2021/11/08 01:14:00;;;;;;;4.05;1.50;;;6.60;93.90;;;;;;2075243;28;20377;-90
2021/11/08 01:15:01;;;;;;;5.82;1.92;;;6.60;93.90;;;;;;2074889;28;20034;-90
2021/11/08 01:16:03;;;;;;;5.15;1.55;;;6.60;93.90;;;;;;2066474;28;20062;-89
2021/11/08 01:17:05;;;;;;;5.80;1.63;;;6.60;93.90;;;;;;2074519;28;20409;-89
2021/11/08 01:18:06;;;;;;;5.82;1.90;;;6.60;93.90;;;;;;2076435;28;20508;-89
2021/11/08 01:19:07;;;;;;;5.63;1.55;;;6.60;93.90;;;;;;2073431;28;20049;-90
2021/11/08 01:20:10;;;;;;;4.53;1.20;;;6.50;93.90;;;;;;2075504;28;20049;-90
2021/11/08 01:21:11;;;;;;;4.38;1.55;;;6.60;93.90;;;;;;2066418;28;20436;-90
2021/11/08 01:22:19;;;;;;;4.30;1.58;;;6.50;93.90;;;;;;2074388;28;20202;-90
2021/11/08 01:23:26;;;;;;;5.25;1.90;;;6.50;93.90;;;;;;2073045;28;20137;-90
2021/11/08 01:24:27;;;;;;;4.57;1.60;;;6.50;93.90;;;;;;2073661;28;20504;-90
2021/11/08 01:25:28;;;;;;;3.70;1.35;;;6.50;93.90;;;;;;2075512;28;20045;-90
2021/11/08 01:26:29;;;;;;;4.55;1.70;;;6.50;93.90;;;;;;2062734;28;20492;-90
2021/11/08 01:28:07;;;;;;;5.50;1.63;;;6.50;93.90;;;;;;2066167;28;20058;-91
2021/11/08 01:29:00;;;;;;;4.80;1.55;;;6.50;93.90;;;;;;2076148;28;20419;-90
2021/11/08 01:30:02;;;;;;;5.63;1.58;;;6.50;93.90;;;;;;2076348;28;20102;-90
2021/11/08 01:31:06;;;;;;;4.53;1.83;;;6.40;93.90;;;;;;2074462;28;20060;-90
2021/11/08 01:32:08;;;;;;;4.90;1.85;;;6.40;93.90;;;;;;2066635;28;20031;-90
2021/11/08 01:33:14;;;;;;;4.28;1.48;;;6.40;93.90;;;;;;2058335;28;20074;-89
2021/11/08 01:34:15;;;;;;;4.93;1.60;;;6.50;94.00;;;;;;2051793;28;20134;-89
2021/11/08 01:35:16;;;;;;;4.35;1.50;;;6.40;93.90;;;;;;2061775;28;20027;-89
2021/11/08 01:36:23;;;;;;;4.82;1.80;;;6.40;93.90;;;;;;2062341;28;20039;-90
2021/11/08 01:37:24;;;;;;;4.25;1.60;;;6.40;93.90;;;;;;2070347;28;20129;-89
2021/11/08 01:38:26;;;;;;;5.75;1.88;;;6.40;94.20;;;;;;2065933;28;20063;-90
2021/11/08 01:39:46;;;;;;;7.07;2.03;;;6.40;93.90;;;;;;2062365;28;20046;-89
2021/11/08 01:40:48;;;;;;;6.35;2.13;;;6.50;93.90;;;;;;2069412;28;20045;-89
2021/11/08 01:41:48;;;;;;;5.70;1.75;;;6.40;93.80;;;;;;2072574;28;20019;-89
2021/11/08 01:42:49;;;;;;;5.22;2.03;;;6.40;93.80;;;;;;2081931;28;20161;-88
2021/11/08 01:43:50;;;;;;;4.07;1.50;;;6.40;93.80;;;;;;2075921;28;20025;-86
2021/11/08 01:44:51;;;;;;;6.50;1.63;;;6.40;93.80;;;;;;2077582;28;20022;-85
2021/11/08 01:45:51;;;;;;;7.32;1.52;;;6.40;93.80;;;;;;2085072;28;20033;-88
2021/11/08 01:46:52;;;;;;;4.03;1.55;;;6.40;93.90;;;;;;2084615;28;20054;-88
2021/11/08 01:47:53;;;;;;;5.40;1.85;;;6.40;93.90;;;;;;2076553;28;20046;-84
2021/11/08 01:48:53;;;;;;;6.25;1.60;;;6.40;93.90;;;;;;2084767;28;20092;-90
2021/11/08 01:49:54;;;;;;;5.57;1.73;;;6.40;93.90;;;;;;2058138;28;20043;-90
2021/11/08 01:50:55;;;;;;;5.45;2.20;;;6.40;93.90;;;;;;2057795;28;20072;-89
2021/11/08 01:51:57;;;;;;;5.60;1.60;;;6.40;93.90;;;;;;2066675;28;20515;-88
2021/11/08 01:52:58;;;;;;;8.02;2.10;;;6.40;93.90;;;;;;2066217;28;20549;-89
2021/11/08 01:53:59;;;;;;;4.65;1.50;;;6.40;94.00;;;;;;2065870;28;20039;-89
2021/11/08 01:55:00;;;;;;;4.25;1.52;;;6.40;94.00;;;;;;2074425;28;20034;-89
2021/11/08 01:56:03;;;;;;;4.70;1.70;;;6.30;94.00;;;;;;2065697;28;20034;-90
2021/11/08 01:57:07;;;;;;;4.75;1.65;;;6.40;94.00;;;;;;2065734;28;20030;-90
2021/11/08 01:58:08;;;;;;;5.43;1.88;;;6.30;94.00;;;;;;2059659;28;20039;-90
2021/11/08 01:59:09;;;;;;;4.28;1.85;;;6.30;94.00;;;;;;2064609;28;20026;-89
2021/11/08 02:00:13;;;;;;;3.88;1.60;;;6.30;94.00;;;;;;2066299;28;20492;-89
2021/11/08 02:01:15;;;;;;;4.85;1.77;;;6.30;94.00;;;;;;2074318;28;20040;-90
2021/11/08 02:02:15;;;;;;;4.05;1.60;;;6.30;94.00;;;;;;2075373;28;20392;-88
2021/11/08 02:03:17;;;;;;;6.10;1.70;;;6.30;94.00;;;;;;2077843;28;20416;-89
2021/11/08 02:04:22;;;;;;;4.95;1.60;;;6.30;94.00;;;;;;2065668;28;20076;-89
2021/11/08 02:05:22;;;;;;;6.40;1.70;;;6.30;94.00;;;;;;2068701;28;20033;-89
2021/11/08 02:06:23;;;;;;;5.85;1.60;;;6.30;94.00;;;;;;2065680;28;20070;-89
2021/11/08 02:07:24;;;;;;;4.10;1.58;;;6.30;94.00;;;;;;2057519;28;20070;-89
2021/11/08 02:08:26;;;;;;;4.93;1.77;;;6.30;94.00;;;;;;2056310;28;20137;-89
2021/11/08 02:09:27;;;;;;;5.00;1.60;;;6.30;94.00;;;;;;2064808;28;20065;-90
2021/11/08 02:10:28;;;;;;;5.03;1.60;;;6.20;94.00;;;;;;2073105;28;20452;-90
2021/11/08 02:11:35;;;;;;;4.53;1.70;;;6.20;94.00;;;;;;2073149;28;20543;-90
2021/11/08 02:12:37;;;;;;;4.90;1.80;;;6.20;94.00;;;;;;2063472;28;20126;-90
2021/11/08 02:13:37;;;;;;;4.13;1.88;;;6.20;94.00;;;;;;2074644;28;20045;-90
2021/11/08 02:14:39;;;;;;;3.78;1.60;;;6.20;94.00;;;;;;2079268;28;20124;-90
2021/11/08 02:15:40;;;;;;;4.43;1.60;;;6.20;94.30;;;;;;2071527;28;20046;-90
2021/11/08 02:16:41;;;;;;;5.15;1.67;;;6.20;94.00;;;;;;2080561;28;20435;-91
2021/11/08 02:17:44;;;;;;;4.45;1.50;;;6.20;94.00;;;;;;2073584;28;20041;-90
2021/11/08 02:18:46;;;;;;;3.42;1.52;;;6.20;94.00;;;;;;2078372;28;20092;-89
2021/11/08 02:19:47;;;;;;;4.43;1.50;;;6.20;94.00;;;;;;2079326;28;20407;-90
2021/11/08 02:20:49;;;;;;;5.50;1.70;;;6.20;94.00;;;;;;2073833;28;20034;-90
2021/11/08 02:21:51;;;;;;;3.80;1.50;;;6.20;94.10;;;;;;2074463;28;20124;-90
2021/11/08 02:22:53;;;;;;;3.60;1.45;;;6.10;94.00;;;;;;2074114;28;20038;-90
2021/11/08 02:23:54;;;;;;;4.03;1.88;;;6.10;94.00;;;;;;2081654;28;20170;-90
2021/11/08 02:24:55;;;;;;;5.30;1.42;;;6.10;94.00;;;;;;2068494;28;20062;-91
2021/11/08 02:26:00;;;;;;;4.32;1.52;;;6.10;94.10;;;;;;2062427;28;20437;-91
2021/11/08 02:27:02;;;;;;;4.15;1.30;;;6.10;94.10;;;;;;2065911;28;20125;-90
2021/11/08 02:28:08;;;;;;;4.18;1.60;;;6.10;94.10;;;;;;2065799;28;20034;-90
2021/11/08 02:29:09;;;;;;;6.88;2.00;;;6.10;94.10;;;;;;2074412;28;20030;-90
2021/11/08 02:30:12;;;;;;;4.05;1.60;;;6.10;94.10;;;;;;2073245;28;20046;-90
2021/11/08 02:31:17;;;;;;;6.68;1.63;;;6.10;94.10;;;;;;2057611;28;20034;-90
2021/11/08 02:32:17;;;;;;;4.35;1.73;;;6.10;94.10;;;;;;2066218;28;20144;-89
2021/11/08 02:33:19;;;;;;;5.50;1.55;;;6.10;94.20;;;;;;2074881;28;20069;-89
2021/11/08 02:34:21;;;;;;;6.65;1.73;;;6.00;94.00;;;;;;2067204;28;20405;-90
2021/11/08 02:35:22;;;;;;;5.90;1.67;;;6.00;94.00;;;;;;2071422;28;20180;-90
2021/11/08 02:36:24;;;;;;;6.07;1.63;;;6.00;94.00;;;;;;2073179;28;20102;-91
2021/11/08 02:37:25;;;;;;;4.63;1.67;;;6.00;94.00;;;;;;2067131;28;20038;-90
2021/11/08 02:38:27;;;;;;;5.50;1.58;;;6.00;94.00;;;;;;2065921;28;20382;-90
2021/11/08 02:39:34;;;;;;;5.00;1.70;;;6.00;94.10;;;;;;2065556;28;20509;-89
2021/11/08 02:40:35;;;;;;;4.68;1.65;;;6.00;94.10;;;;;;2073803;28;20034;-90
2021/11/08 02:41:36;;;;;;;4.55;1.42;;;6.00;94.30;;;;;;2066160;28;20129;-90
2021/11/08 02:42:37;;;;;;;3.72;1.55;;;6.00;94.00;;;;;;2057776;28;20386;-90
2021/11/08 02:43:39;;;;;;;5.45;1.40;;;6.00;94.00;;;;;;2066158;28;20053;-90
2021/11/08 02:44:40;;;;;;;4.80;1.85;;;6.10;94.00;;;;;;2073163;28;20038;-90
2021/11/08 02:45:40;;;;;;;4.28;1.50;;;6.00;94.00;;;;;;2064405;28;20030;-90
2021/11/08 02:46:42;;;;;;;4.95;1.50;;;6.00;94.30;;;;;;2057169;28;20441;-90
2021/11/08 02:47:44;;;;;;;4.53;1.73;;;6.00;94.00;;;;;;2065641;28;20034;-90
2021/11/08 02:48:49;;;;;;;4.43;1.52;;;6.00;94.00;;;;;;2065951;28;20058;-90
2021/11/08 02:49:53;;;;;;;4.43;1.40;;;6.10;94.00;;;;;;2072815;28;20053;-89
2021/11/08 02:50:57;;;;;;;5.07;1.90;;;6.00;94.00;;;;;;2077127;28;20801;-89
2021/11/08 02:52:04;;;;;;;4.35;1.50;;;6.10;94.00;;;;;;2065910;28;20046;-89
2021/11/08 02:53:05;;;;;;;4.20;1.48;;;6.00;94.00;;;;;;2071774;28;20025;-89
2021/11/08 02:54:13;;;;;;;4.65;1.70;;;6.10;94.00;;;;;;2069871;28;20050;-89
2021/11/08 02:55:18;;;;;;;4.53;1.60;;;6.00;94.30;;;;;;2065813;28;20145;-89
2021/11/08 02:56:19;;;;;;;5.40;1.80;;;6.00;94.00;;;;;;2063413;28;20030;-89
2021/11/08 02:57:23;;;;;;;3.80;1.70;;;6.00;94.00;;;;;;2067800;28;20081;-89
2021/11/08 02:58:27;;;;;;;3.33;1.33;;;6.00;94.00;;;;;;2057837;28;20038;-89
2021/11/08 02:59:30;;;;;;;5.53;1.58;;;6.10;94.00;;;;;;2065912;28;20112;-90
2021/11/08 03:00:31;;;;;;;4.30;1.58;;;6.00;94.00;;;;;;2064360;28;20034;-89
2021/11/08 03:01:33;;;;;;;3.92;1.60;;;6.00;94.00;;;;;;2065831;28;20489;-87
2021/11/08 03:02:36;;;;;;;5.32;1.48;;;6.00;94.00;;;;;;2074162;28;20109;-90
2021/11/08 03:03:42;;;;;;;3.85;1.42;;;6.00;94.00;;;;;;2066132;28;20562;-89
2021/11/08 03:04:46;;;;;;;5.15;1.80;;;6.00;94.00;;;;;;2071572;28;20041;-89
2021/11/08 03:05:47;;;;;;;4.85;1.67;;;6.00;94.00;;;;;;2072698;28;20030;-89
2021/11/08 03:06:48;;;;;;;3.90;2.00;;;6.00;94.00;;;;;;2064465;28;20481;-89
2021/11/08 03:07:49;;;;;;;3.58;1.38;;;6.00;94.00;;;;;;2064863;28;20053;-90
2021/11/08 03:08:51;;;;;;;4.07;1.60;;;6.00;94.00;;;;;;2065331;28;20109;-89
2021/11/08 03:09:56;;;;;;;4.43;1.35;;;6.00;94.00;;;;;;2059711;28;20501;-88
2021/11/08 03:10:58;;;;;;;5.70;2.00;;;5.90;94.10;;;;;;2060993;28;20121;-89
2021/11/08 03:12:06;;;;;;;6.30;1.73;;;5.90;94.10;;;;;;2071886;28;20440;-90
2021/11/08 03:13:17;;;;;;;4.47;1.45;;;5.90;94.10;;;;;;2065362;28;20073;-89
2021/11/08 03:14:21;;;;;;;3.83;1.70;;;5.90;94.10;;;;;;2064853;28;20093;-90
2021/11/08 03:17:42;;;;;;;4.70;1.60;;;5.90;94.10;;;;;;2073660;28;20042;-89
2021/11/08 03:18:44;;;;;;;3.80;1.50;;;5.90;94.10;;;;;;2070750;28;20042;-89
2021/11/08 03:19:45;;;;;;;3.83;1.63;;;5.90;94.10;;;;;;2078050;28;20480;-89
2021/11/08 03:20:46;;;;;;;5.15;1.55;;;6.00;94.10;;;;;;2075457;28;20080;-90
2021/11/08 03:21:49;;;;;;;5.93;1.65;;;5.90;94.10;;;;;;2073483;28;20129;-89
2021/11/08 03:22:54;;;;;;;6.40;1.50;;;5.90;94.10;;;;;;2075140;28;20124;-89
2021/11/08 03:23:59;;;;;;;4.13;1.55;;;5.90;94.10;;;;;;2079268;28;20033;-90
2021/11/08 03:28:47;;;;;;;5.97;1.85;;;5.90;94.10;;;;;;2086312;28;20029;-88
2021/11/08 03:29:48;;;;;;;4.70;1.88;;;5.90;94.30;;;;;;2083685;28;20065;-90
2021/11/08 03:30:50;;;;;;;6.25;1.98;;;5.90;94.00;;;;;;2083630;28;20045;-86
2021/11/08 03:31:51;;;;;;;5.15;1.92;;;5.90;94.00;;;;;;2092187;28;20041;-85
2021/11/08 03:32:54;;;;;;;4.90;2.08;;;5.90;94.00;;;;;;2083102;28;20046;-90
2021/11/08 03:33:56;;;;;;;4.63;1.67;;;5.90;94.00;;;;;;2091767;28;20040;-82
2021/11/08 03:35:04;;;;;;;5.78;2.13;;;5.90;94.00;;;;;;2081721;28;20037;-90
2021/11/08 03:36:07;;;;;;;4.55;1.77;;;5.90;94.10;;;;;;2074016;28;20046;-89
2021/11/08 03:37:08;;;;;;;4.13;1.70;;;5.90;94.10;;;;;;2074237;28;20023;-89
2021/11/08 03:38:13;;;;;;;5.07;1.77;;;5.90;94.10;;;;;;2073392;28;20480;-89
2021/11/08 03:39:15;;;;;;;4.10;1.83;;;5.90;94.10;;;;;;2073430;28;20121;-89
2021/11/08 03:40:28;;;;;;;4.70;1.90;;;5.90;94.10;;;;;;2073619;28;20038;-89
2021/11/08 03:41:29;;;;;;;4.90;1.85;;;5.90;94.10;;;;;;2080655;28;20040;-90
2021/11/08 03:42:30;;;;;;;6.47;1.88;;;5.90;94.10;;;;;;2079551;28;20025;-89
2021/11/08 03:43:31;;;;;;;6.70;2.20;;;5.90;94.10;;;;;;2073743;28;20050;-90
2021/11/08 03:44:32;;;;;;;3.97;1.88;;;5.90;94.10;;;;;;2075884;28;20063;-89
2021/11/08 03:45:35;;;;;;;5.40;1.98;;;5.90;94.10;;;;;;2079389;28;20041;-89
2021/11/08 03:46:36;;;;;;;5.53;2.33;;;5.90;94.10;;;;;;2081977;28;20735;-89
2021/11/08 03:47:38;;;;;;;7.28;2.10;;;5.90;94.10;;;;;;2080093;28;20030;-89
2021/11/08 03:48:39;;;;;;;5.47;2.15;;;5.90;94.10;;;;;;2057325;28;20039;-89
2021/11/08 03:49:39;;;;;;;7.05;2.30;;;5.90;94.10;;;;;;2057395;28;20038;-88
2021/11/08 03:50:40;;;;;;;6.60;1.88;;;5.90;94.10;;;;;;2057062;28;20035;-89
2021/11/08 03:51:41;;;;;;;5.22;2.13;;;5.90;94.10;;;;;;2065200;28;20030;-89
2021/11/08 03:52:42;;;;;;;3.80;1.85;;;5.90;94.10;;;;;;2066759;28;20034;-89
2021/11/08 03:53:43;;;;;;;6.03;2.45;;;5.90;94.10;;;;;;2065199;28;20586;-89
2021/11/08 03:54:43;;;;;;;4.78;2.00;;;5.90;94.10;;;;;;2065079;28;20034;-89
2021/11/08 03:55:46;;;;;;;4.35;2.03;;;5.80;94.10;;;;;;2074208;28;20066;-89
2021/11/08 03:56:47;;;;;;;7.18;2.13;;;5.90;94.10;;;;;;2076955;28;20084;-89
2021/11/08 03:57:49;;;;;;;5.93;2.40;;;5.90;94.10;;;;;;2073460;28;20132;-89
2021/11/08 03:58:50;;;;;;;4.53;2.08;;;5.90;94.10;;;;;;2072956;28;20136;-89
2021/11/08 03:59:51;;;;;;;5.75;2.00;;;5.90;94.10;;;;;;2063986;28;20034;-89
2021/11/08 04:00:51;;;;;;;5.40;2.13;;;5.90;94.10;;;;;;2043809;28;20167;-90
2021/11/08 04:01:52;;;;;;;5.47;1.90;;;5.90;94.10;;;;;;2051515;28;20101;-89
2021/11/08 04:02:57;;;;;;;4.55;2.00;;;5.90;94.10;;;;;;2058056;28;20134;-90
2021/11/08 04:03:58;;;;;;;3.90;1.70;;;5.90;94.20;;;;;;2051453;28;20054;-89
2021/11/08 04:05:01;;;;;;;6.18;1.83;;;5.90;94.20;;;;;;2064434;28;20034;-89
2021/11/08 04:06:02;;;;;;;6.15;2.28;;;5.80;94.20;;;;;;2082272;28;20038;-90
2021/11/08 04:07:03;;;;;;;5.43;1.65;;;5.80;94.20;;;;;;2080865;28;20026;-89
2021/11/08 04:08:08;;;;;;;5.20;2.30;;;5.80;94.20;;;;;;2081325;28;20105;-89
2021/11/08 04:09:12;;;;;;;3.97;1.98;;;5.90;94.20;;;;;;2076025;28;20058;-89
2021/11/08 04:10:14;;;;;;;5.30;2.38;;;5.80;94.20;;;;;;2070657;28;20026;-89
2021/11/08 04:11:15;;;;;;;3.75;1.58;;;5.80;94.50;;;;;;2067495;28;20110;-90
2021/11/08 04:12:16;;;;;;;4.72;1.90;;;5.80;94.20;;;;;;2065717;28;20038;-90
2021/11/08 04:13:17;;;;;;;4.65;1.70;;;5.80;94.50;;;;;;2057150;28;20133;-90
2021/11/08 04:14:19;;;;;;;6.13;1.80;;;5.80;94.20;;;;;;2057319;28;20073;-90
2021/11/08 04:15:28;;;;;;;4.75;2.03;;;5.80;94.20;;;;;;2077765;28;20450;-90
2021/11/08 04:16:30;;;;;;;4.68;1.90;;;5.80;94.20;;;;;;2070842;28;20088;-90
2021/11/08 04:17:31;;;;;;;4.60;2.00;;;5.80;94.20;;;;;;2071976;28;20051;-90
2021/11/08 04:18:33;;;;;;;7.13;2.25;;;5.80;94.20;;;;;;2072813;28;20034;-89
2021/11/08 04:19:33;;;;;;;4.88;2.03;;;5.80;94.20;;;;;;2065126;28;20497;-90
2021/11/08 04:20:36;;;;;;;4.78;1.90;;;5.80;94.20;;;;;;2065283;28;20034;-90
2021/11/08 04:21:38;;;;;;;5.07;2.08;;;5.80;94.20;;;;;;2065244;28;20092;-90
2021/11/08 04:22:38;;;;;;;4.07;1.95;;;5.80;94.50;;;;;;2065350;28;20149;-90
2021/11/08 04:23:39;;;;;;;4.25;1.90;;;5.80;94.20;;;;;;2067407;28;20544;-90
2021/11/08 04:24:42;;;;;;;3.90;1.70;;;5.80;94.50;;;;;;2062546;28;20122;-89
2021/11/08 04:25:43;;;;;;;5.45;1.95;;;5.80;94.20;;;;;;2065758;28;20635;-90
2021/11/08 04:26:44;;;;;;;4.25;2.00;;;5.80;94.20;;;;;;2065626;28;20042;-90
2021/11/08 04:27:46;;;;;;;5.55;1.95;;;5.80;94.20;;;;;;2048923;29;20039;-91
2021/11/08 04:29:01;;;;;;;4.38;1.83;;;5.80;94.20;;;;;;2049368;28;20041;-90
2021/11/08 04:30:04;;;;;;;4.43;2.00;;;5.80;94.20;;;;;;2061139;28;20034;-90
2021/11/08 04:31:07;;;;;;;5.93;2.00;;;5.80;94.20;;;;;;2065306;28;20041;-90
2021/11/08 04:32:09;;;;;;;5.07;1.77;;;5.80;94.20;;;;;;2076865;28;20034;-90
2021/11/08 04:33:35;;;;;;;4.82;1.80;;;5.80;94.20;;;;;;2065628;28;20450;-90
2021/11/08 04:34:44;;;;;;;4.85;1.63;;;5.70;94.20;;;;;;2064719;28;20030;-90
2021/11/08 04:35:59;;;;;;;6.45;2.22;;;5.80;94.20;;;;;;2066821;28;20045;-90
2021/11/08 04:48:36;;;;;;;5.45;1.98;;;5.70;94.20;;;;;;2065775;28;20090;-90
2021/11/08 04:51:00;;;;;;;6.10;2.33;;;5.70;94.10;;;;;;2070975;28;20029;-90
2021/11/08 04:52:12;;;;;;;4.93;1.88;;;5.70;94.10;;;;;;2068244;28;20027;-90
2021/11/08 04:53:23;;;;;;;6.18;2.25;;;5.70;94.10;;;;;;2058611;28;20110;-90
2021/11/08 04:54:54;;;;;;;5.25;2.00;;;5.70;94.10;;;;;;2063500;28;20137;-90
2021/11/08 05:21:00;;;;;;;5.13;2.15;;;5.70;94.20;;;;;;2066316;28;20046;-90
2021/11/08 05:30:15;;;;;;;3.88;1.80;;;5.70;94.20;;;;;;2059031;28;20042;-89
2021/11/08 05:31:16;;;;;;;4.38;1.60;;;5.70;94.10;;;;;;2059306;28;20067;-88
2021/11/08 05:32:16;;;;;;;5.28;1.85;;;5.60;94.10;;;;;;2073436;28;20034;-88
2021/11/08 05:33:17;;;;;;;5.57;2.03;;;5.70;94.20;;;;;;2066267;28;20045;-89
2021/11/08 05:34:18;;;;;;;6.13;2.10;;;5.70;94.20;;;;;;2064540;28;20384;-89
2021/11/08 05:35:20;;;;;;;5.15;2.00;;;5.60;94.20;;;;;;2066340;28;20039;-90
2021/11/08 05:36:20;;;;;;;5.53;2.00;;;5.60;94.20;;;;;;2074794;28;20038;-90
2021/11/08 05:37:22;;;;;;;5.68;2.15;;;5.60;94.20;;;;;;2071039;28;20037;-90
2021/11/08 05:38:25;;;;;;;4.43;2.03;;;5.60;94.20;;;;;;2066057;28;20030;-90
2021/11/08 05:39:25;;;;;;;4.72;1.80;;;5.60;94.20;;;;;;2074364;28;20224;-89
2021/11/08 05:40:32;;;;;;;6.70;1.90;;;5.60;94.20;;;;;;2076708;28;20555;-89
2021/11/08 05:41:34;;;;;;;4.47;1.80;;;5.60;94.20;;;;;;2076596;28;20531;-89
2021/11/08 05:42:35;;;;;;;4.82;2.13;;;5.60;94.20;;;;;;2079570;28;20487;-88
2021/11/08 05:43:36;;;;;;;4.63;1.90;;;5.60;94.20;;;;;;2073795;28;20049;-89
2021/11/08 05:44:39;;;;;;;5.53;2.30;;;5.60;94.30;;;;;;2059162;28;20387;-88
2021/11/08 05:45:41;;;;;;;6.20;2.17;;;5.60;94.30;;;;;;2058292;28;20061;-89
2021/11/08 05:46:42;;;;;;;7.15;1.90;;;5.60;94.30;;;;;;2074565;28;20034;-89
2021/11/08 05:47:45;;;;;;;4.45;2.10;;;5.60;94.30;;;;;;2074102;28;20042;-89
2021/11/08 05:48:47;;;;;;;4.97;1.98;;;5.50;94.30;;;;;;2074293;28;20057;-89
2021/11/08 05:49:48;;;;;;;5.78;2.20;;;5.60;94.30;;;;;;2073955;28;20038;-88
2021/11/08 05:50:48;;;;;;;5.82;2.05;;;5.50;94.30;;;;;;2065260;28;20035;-89
2021/11/08 05:51:49;;;;;;;5.82;2.40;;;5.50;94.30;;;;;;2057937;28;20039;-90
2021/11/08 05:52:52;;;;;;;6.40;2.13;;;5.50;94.30;;;;;;2057570;28;20043;-89
2021/11/08 05:53:54;;;;;;;4.93;1.95;;;5.50;94.30;;;;;;2056789;28;20461;-90
2021/11/08 05:54:55;;;;;;;5.30;1.88;;;5.50;94.30;;;;;;2076148;28;20068;-90
2021/11/08 05:56:14;;;;;;;4.55;1.85;;;5.50;94.30;;;;;;2074747;28;20045;-90
2021/11/08 06:49:36;;;;;;;6.82;1.95;;;6.00;94.00;;;;;;2080510;28;20190;-91
2021/11/08 06:50:36;;;;;;;7.03;2.58;;;6.00;94.00;;;;;;2072117;28;20077;-90
2021/11/08 06:51:37;;;;;;;3.78;1.48;;;6.00;94.10;;;;;;2072920;28;20030;-91
2021/11/08 06:52:39;;;;;;;4.03;2.08;;;6.00;94.10;;;;;;2081122;28;20041;-90
2021/11/08 06:53:40;;;;;;;3.97;1.50;;;6.00;94.10;;;;;;2074757;28;20042;-89
2021/11/08 06:54:47;;;;;;;4.38;1.73;;;6.00;94.10;;;;;;2061972;28;20035;-90
2021/11/08 06:55:50;;;;;;;5.75;2.10;;;5.90;94.20;;;;;;2079635;28;20026;-90
2021/11/08 06:57:00;;;;;;;5.07;2.05;;;6.00;94.20;;;;;;2078638;28;20030;-90
2021/11/08 06:58:04;;;;;;;5.30;2.10;;;6.00;94.20;;;;;;2072998;28;20094;-90
2021/11/08 06:59:05;;;;;;;4.65;1.88;;;5.90;94.20;;;;;;2073509;28;20076;-88
2021/11/08 07:00:06;;;;;;;4.03;1.90;;;5.90;94.20;;;;;;2084037;28;20037;-90
2021/11/08 07:01:06;;;;;;;6.85;2.08;;;6.00;94.20;;;;;;2091460;28;20006;-88
2021/11/08 07:02:07;;;;;;;5.28;2.10;;;5.90;94.20;;;;;;2086729;28;20049;-88
2021/11/08 07:03:08;;;;;;;5.07;2.03;;;5.90;94.30;;;;;;2076576;28;20053;-89
2021/11/08 07:04:09;;;;;;;5.70;2.00;;;5.90;94.30;;;;;;2075657;28;20057;-89
2021/11/08 07:05:10;;;;;;;4.60;2.00;;;5.90;94.30;;;;;;2077198;28;20049;-90
2021/11/08 07:06:10;;;;;;;5.70;2.35;;;6.00;94.30;;;;;;2076537;28;20029;-89
2021/11/08 07:07:11;;;;;;;4.72;2.05;;;6.00;94.60;;;;;;2073883;28;20045;-89
2021/11/08 07:08:12;;;;;;;6.07;1.98;;;6.00;94.30;;;;;;2073591;28;20026;-89
2021/11/08 07:09:13;;;;;;;7.25;2.05;;;6.00;94.30;;;;;;2063535;28;20066;-89
2021/11/08 07:10:20;;;;;;;5.40;2.20;;;6.00;94.30;;;;;;2073163;28;20024;-88
2021/11/08 07:11:20;;;;;;;5.07;2.00;;;6.10;94.30;;;;;;2073518;28;20041;-89
2021/11/08 07:12:21;;;;;;;6.35;2.15;;;6.10;94.30;;;;;;2073759;28;20345;-89
2021/11/08 07:13:22;;;;;;;4.25;2.05;;;6.10;94.30;;;;;;2065327;28;20448;-89
2021/11/08 07:14:22;;;;;;;4.72;1.90;;;6.10;94.30;;;;;;2065692;28;20524;-90
2021/11/08 07:15:23;;;;;;;6.07;2.30;;;6.20;94.20;;;;;;2082639;28;20420;-90
2021/11/08 07:16:24;;;;;;;6.93;2.20;;;6.20;94.20;;;;;;2073748;28;20030;-89
2021/11/08 07:17:24;;;;;;;7.78;2.50;;;6.20;94.20;;;;;;2074426;28;20040;-89
2021/11/08 07:18:25;;;;;;;6.00;2.35;;;6.20;94.20;;;;;;2075686;28;20042;-89